sensor_id;sensor_type;location;lat;lon;timestamp;pressure;altitude;pressure_sealevel;temperature;humidity
53900;BME280;40509;32.858;-116.858;2023-02-20T00:00:28;98244.81;;;18.93;47.47
53900;BME280;40509;32.858;-116.858;2023-02-20T00:02:56;98239.66;;;19.02;48.96
53900;BME280;40509;32.858;-116.858;2023-02-20T00:05:24;98252.59;;;19.04;48.44
53900;BME280;40509;32.858;-116.858;2023-02-20T00:07:51;98250.19;;;19.12;50.40
53900;BME280;40509;32.858;-116.858;2023-02-20T00:10:19;98254.31;;;19.15;50.02
53900;BME280;40509;32.858;-116.858;2023-02-20T00:12:46;98247.91;;;18.98;48.71
53900;BME280;40509;32.858;-116.858;2023-02-20T00:15:14;98255.59;;;18.99;49.98
53900;BME280;40509;32.858;-116.858;2023-02-20T00:17:45;98258.25;;;18.88;49.51
53900;BME280;40509;32.858;-116.858;2023-02-20T00:20:17;98266.81;;;18.90;49.53
53900;BME280;40509;32.858;-116.858;2023-02-20T00:22:45;98263.81;;;18.95;51.09
53900;BME280;40509;32.858;-116.858;2023-02-20T00:25:15;98263.81;;;18.95;49.44
53900;BME280;40509;32.858;-116.858;2023-02-20T00:27:43;98257.22;;;18.79;50.18
53900;BME280;40509;32.858;-116.858;2023-02-20T00:30:22;98256.50;;;18.89;50.56
53900;BME280;40509;32.858;-116.858;2023-02-20T00:32:52;98255.88;;;18.85;49.72
53900;BME280;40509;32.858;-116.858;2023-02-20T00:35:21;98256.94;;;18.82;49.75
53900;BME280;40509;32.858;-116.858;2023-02-20T00:37:49;98254.75;;;18.99;50.71
53900;BME280;40509;32.858;-116.858;2023-02-20T00:40:19;98250.88;;;18.93;50.48
53900;BME280;40509;32.858;-116.858;2023-02-20T00:42:46;98259.91;;;19.00;50.67
53900;BME280;40509;32.858;-116.858;2023-02-20T00:45:15;98262.44;;;18.79;50.29
53900;BME280;40509;32.858;-116.858;2023-02-20T00:47:43;98249.75;;;18.75;50.24
53900;BME280;40509;32.858;-116.858;2023-02-20T00:50:12;98242.78;;;18.85;49.46
53900;BME280;40509;32.858;-116.858;2023-02-20T00:52:40;98245.66;;;18.82;51.41
53900;BME280;40509;32.858;-116.858;2023-02-20T00:55:07;98248.91;;;18.74;51.27
53900;BME280;40509;32.858;-116.858;2023-02-20T00:57:35;98254.13;;;18.74;50.67
53900;BME280;40509;32.858;-116.858;2023-02-20T01:00:05;98248.22;;;18.72;50.42
53900;BME280;40509;32.858;-116.858;2023-02-20T01:02:33;98241.66;;;18.78;51.06
53900;BME280;40509;32.858;-116.858;2023-02-20T01:05:01;98241.38;;;18.81;51.35
53900;BME280;40509;32.858;-116.858;2023-02-20T01:07:30;98239.50;;;18.83;50.21
53900;BME280;40509;32.858;-116.858;2023-02-20T01:09:57;98233.78;;;18.89;50.43
53900;BME280;40509;32.858;-116.858;2023-02-20T01:12:24;98236.97;;;18.93;51.06
53900;BME280;40509;32.858;-116.858;2023-02-20T01:14:51;98242.66;;;18.86;50.63
53900;BME280;40509;32.858;-116.858;2023-02-20T01:17:19;98242.66;;;18.86;50.76
53900;BME280;40509;32.858;-116.858;2023-02-20T01:19:47;98244.75;;;19.04;50.24
53900;BME280;40509;32.858;-116.858;2023-02-20T01:22:14;98239.75;;;19.22;51.20
53900;BME280;40509;32.858;-116.858;2023-02-20T01:24:42;98248.81;;;19.18;50.63
53900;BME280;40509;32.858;-116.858;2023-02-20T01:27:09;98242.84;;;19.06;50.42
53900;BME280;40509;32.858;-116.858;2023-02-20T01:29:36;98239.84;;;19.11;50.06
53900;BME280;40509;32.858;-116.858;2023-02-20T01:32:04;98232.53;;;19.04;50.87
53900;BME280;40509;32.858;-116.858;2023-02-20T01:34:31;98237.75;;;19.04;50.26
53900;BME280;40509;32.858;-116.858;2023-02-20T01:36:58;98238.44;;;19.28;51.61
53900;BME280;40509;32.858;-116.858;2023-02-20T01:39:27;98230.22;;;19.42;50.65
53900;BME280;40509;32.858;-116.858;2023-02-20T01:42:02;98226.38;;;19.67;49.94
53900;BME280;40509;32.858;-116.858;2023-02-20T01:44:35;98231.03;;;19.95;49.47
53900;BME280;40509;32.858;-116.858;2023-02-20T01:47:07;98236.28;;;19.95;49.65
53900;BME280;40509;32.858;-116.858;2023-02-20T01:49:55;98231.00;;;19.85;49.26
53900;BME280;40509;32.858;-116.858;2023-02-20T01:52:26;98233.13;;;20.01;49.06
53900;BME280;40509;32.858;-116.858;2023-02-20T01:55:04;98235.19;;;20.07;48.83
53900;BME280;40509;32.858;-116.858;2023-02-20T01:57:38;98228.69;;;19.92;48.29
53900;BME280;40509;32.858;-116.858;2023-02-20T02:00:09;98232.06;;;20.13;48.40
53900;BME280;40509;32.858;-116.858;2023-02-20T02:03:10;98243.00;;;20.28;48.21
53900;BME280;40509;32.858;-116.858;2023-02-20T02:05:40;98236.66;;;20.31;48.04
53900;BME280;40509;32.858;-116.858;2023-02-20T02:08:13;98225.94;;;19.93;48.74
53900;BME280;40509;32.858;-116.858;2023-02-20T02:13:19;98229.16;;;20.07;48.12
53900;BME280;40509;32.858;-116.858;2023-02-20T02:15:50;98223.50;;;20.11;48.19
53900;BME280;40509;32.858;-116.858;2023-02-20T02:38:18;98235.28;;;19.34;48.90
53900;BME280;40509;32.858;-116.858;2023-02-20T02:41:05;98228.84;;;19.38;49.25
53900;BME280;40509;32.858;-116.858;2023-02-20T02:51:57;98254.38;;;19.25;49.44
53900;BME280;40509;32.858;-116.858;2023-02-20T02:54:27;98258.22;;;19.20;50.16
53900;BME280;40509;32.858;-116.858;2023-02-20T02:57:22;98254.50;;;19.23;51.96
53900;BME280;40509;32.858;-116.858;2023-02-20T03:00:06;98255.84;;;19.17;50.95
53900;BME280;40509;32.858;-116.858;2023-02-20T03:03:00;98249.94;;;19.15;50.07
53900;BME280;40509;32.858;-116.858;2023-02-20T03:05:36;98242.38;;;19.22;50.47
53900;BME280;40509;32.858;-116.858;2023-02-20T03:08:29;98247.44;;;19.14;51.26
53900;BME280;40509;32.858;-116.858;2023-02-20T03:11:12;98244.50;;;19.07;50.47
53900;BME280;40509;32.858;-116.858;2023-02-20T03:13:49;98248.91;;;19.07;50.54
53900;BME280;40509;32.858;-116.858;2023-02-20T03:19:12;98237.50;;;19.08;51.00
53900;BME280;40509;32.858;-116.858;2023-02-20T03:21:44;98238.56;;;19.05;50.80
53900;BME280;40509;32.858;-116.858;2023-02-20T03:24:13;98242.97;;;19.04;51.11
53900;BME280;40509;32.858;-116.858;2023-02-20T03:26:44;98246.69;;;19.02;51.14
53900;BME280;40509;32.858;-116.858;2023-02-20T03:29:22;98241.78;;;19.09;51.24
53900;BME280;40509;32.858;-116.858;2023-02-20T03:32:14;98250.13;;;19.02;51.21
53900;BME280;40509;32.858;-116.858;2023-02-20T03:35:01;98252.94;;;19.63;50.07
53900;BME280;40509;32.858;-116.858;2023-02-20T03:37:49;98250.72;;;20.39;47.73
53900;BME280;40509;32.858;-116.858;2023-02-20T03:40:37;98251.31;;;20.72;47.01
53900;BME280;40509;32.858;-116.858;2023-02-20T03:43:24;98252.00;;;20.94;46.20
53900;BME280;40509;32.858;-116.858;2023-02-20T03:46:04;98250.47;;;21.21;45.43
53900;BME280;40509;32.858;-116.858;2023-02-20T03:51:27;98248.19;;;21.46;44.59
53900;BME280;40509;32.858;-116.858;2023-02-20T03:54:03;98238.47;;;21.66;44.10
53900;BME280;40509;32.858;-116.858;2023-02-20T03:56:36;98243.56;;;21.77;43.84
53900;BME280;40509;32.858;-116.858;2023-02-20T03:59:13;98244.03;;;21.90;43.41
53900;BME280;40509;32.858;-116.858;2023-02-20T04:01:43;98252.13;;;22.07;43.31
53900;BME280;40509;32.858;-116.858;2023-02-20T04:04:17;98250.47;;;22.06;43.13
53900;BME280;40509;32.858;-116.858;2023-02-20T04:06:49;98262.69;;;22.25;42.48
53900;BME280;40509;32.858;-116.858;2023-02-20T04:11:57;98259.19;;;21.69;43.30
53900;BME280;40509;32.858;-116.858;2023-02-20T04:14:28;98259.91;;;21.04;44.75
53900;BME280;40509;32.858;-116.858;2023-02-20T04:17:02;98272.44;;;20.71;45.59
53900;BME280;40509;32.858;-116.858;2023-02-20T04:19:32;98270.31;;;20.55;45.90
53900;BME280;40509;32.858;-116.858;2023-02-20T04:22:04;98268.94;;;20.41;46.32
53900;BME280;40509;32.858;-116.858;2023-02-20T04:24:54;98272.50;;;20.30;46.35
53900;BME280;40509;32.858;-116.858;2023-02-20T04:27:25;98273.06;;;20.24;46.85
53900;BME280;40509;32.858;-116.858;2023-02-20T04:29:55;98267.75;;;20.14;46.95
53900;BME280;40509;32.858;-116.858;2023-02-20T04:32:23;98270.81;;;20.10;47.11
53900;BME280;40509;32.858;-116.858;2023-02-20T04:34:52;98272.84;;;20.06;47.03
53900;BME280;40509;32.858;-116.858;2023-02-20T04:37:20;98273.41;;;20.00;47.58
53900;BME280;40509;32.858;-116.858;2023-02-20T04:39:50;98272.00;;;19.96;47.76
53900;BME280;40509;32.858;-116.858;2023-02-20T04:42:18;98271.47;;;20.02;46.55
53900;BME280;40509;32.858;-116.858;2023-02-20T04:44:45;98272.97;;;19.95;47.47
53900;BME280;40509;32.858;-116.858;2023-02-20T04:47:17;98271.69;;;19.89;47.33
53900;BME280;40509;32.858;-116.858;2023-02-20T04:49:44;98271.41;;;19.82;48.10
53900;BME280;40509;32.858;-116.858;2023-02-20T04:52:16;98270.91;;;19.77;47.74
53900;BME280;40509;32.858;-116.858;2023-02-20T04:54:43;98270.34;;;19.74;47.91
53900;BME280;40509;32.858;-116.858;2023-02-20T04:57:13;98266.34;;;19.69;48.17
53900;BME280;40509;32.858;-116.858;2023-02-20T04:59:40;98267.44;;;19.67;48.11
53900;BME280;40509;32.858;-116.858;2023-02-20T05:02:07;98267.69;;;19.64;47.81
53900;BME280;40509;32.858;-116.858;2023-02-20T05:04:35;98270.56;;;19.61;47.85
53900;BME280;40509;32.858;-116.858;2023-02-20T05:07:02;98267.38;;;19.57;47.83
53900;BME280;40509;32.858;-116.858;2023-02-20T05:09:29;98270.13;;;19.55;48.04
53900;BME280;40509;32.858;-116.858;2023-02-20T05:11:57;98273.84;;;19.53;47.94
53900;BME280;40509;32.858;-116.858;2023-02-20T05:14:25;98281.97;;;19.50;48.11
53900;BME280;40509;32.858;-116.858;2023-02-20T05:16:52;98284.72;;;19.48;48.00
53900;BME280;40509;32.858;-116.858;2023-02-20T05:19:19;98290.22;;;19.45;47.96
53900;BME280;40509;32.858;-116.858;2023-02-20T05:21:46;98289.50;;;19.43;47.90
53900;BME280;40509;32.858;-116.858;2023-02-20T05:24:32;98282.72;;;19.41;48.10
53900;BME280;40509;32.858;-116.858;2023-02-20T05:26:59;98288.09;;;19.39;47.99
53900;BME280;40509;32.858;-116.858;2023-02-20T05:29:27;98287.38;;;19.37;48.24
53900;BME280;40509;32.858;-116.858;2023-02-20T05:31:54;98287.66;;;19.34;48.19
53900;BME280;40509;32.858;-116.858;2023-02-20T05:34:21;98284.22;;;19.33;47.95
53900;BME280;40509;32.858;-116.858;2023-02-20T05:36:51;98287.91;;;19.31;48.25
53900;BME280;40509;32.858;-116.858;2023-02-20T05:39:19;98287.19;;;19.29;47.91
53900;BME280;40509;32.858;-116.858;2023-02-20T05:41:47;98295.19;;;19.27;48.32
53900;BME280;40509;32.858;-116.858;2023-02-20T05:44:15;98293.63;;;19.25;48.11
53900;BME280;40509;32.858;-116.858;2023-02-20T05:46:42;98294.63;;;19.24;47.96
53900;BME280;40509;32.858;-116.858;2023-02-20T05:49:10;98283.56;;;19.20;48.13
53900;BME280;40509;32.858;-116.858;2023-02-20T05:51:38;98288.09;;;19.18;48.15
53900;BME280;40509;32.858;-116.858;2023-02-20T05:54:05;98287.97;;;19.19;48.22
53900;BME280;40509;32.858;-116.858;2023-02-20T05:56:33;98285.72;;;19.15;48.51
53900;BME280;40509;32.858;-116.858;2023-02-20T05:59:00;98280.63;;;19.13;48.26
53900;BME280;40509;32.858;-116.858;2023-02-20T06:01:30;98281.72;;;19.11;48.15
53900;BME280;40509;32.858;-116.858;2023-02-20T06:03:57;98286.13;;;19.10;48.41
53900;BME280;40509;32.858;-116.858;2023-02-20T06:06:34;98287.34;;;19.06;48.32
53900;BME280;40509;32.858;-116.858;2023-02-20T06:09:03;98285.66;;;19.05;48.31
53900;BME280;40509;32.858;-116.858;2023-02-20T06:11:34;98288.41;;;19.03;48.22
53900;BME280;40509;32.858;-116.858;2023-02-20T06:14:02;98287.56;;;19.03;48.39
53900;BME280;40509;32.858;-116.858;2023-02-20T06:16:31;98290.31;;;19.01;47.79
53900;BME280;40509;32.858;-116.858;2023-02-20T06:18:58;98290.44;;;19.00;47.97
53900;BME280;40509;32.858;-116.858;2023-02-20T06:21:26;98295.09;;;18.96;48.43
53900;BME280;40509;32.858;-116.858;2023-02-20T06:23:54;98298.69;;;18.95;48.42
53900;BME280;40509;32.858;-116.858;2023-02-20T06:26:22;98303.06;;;18.95;47.90
53900;BME280;40509;32.858;-116.858;2023-02-20T06:28:49;98297.13;;;18.93;48.24
53900;BME280;40509;32.858;-116.858;2023-02-20T06:31:23;98296.28;;;18.92;47.89
53900;BME280;40509;32.858;-116.858;2023-02-20T06:33:51;98291.41;;;18.87;48.40
53900;BME280;40509;32.858;-116.858;2023-02-20T06:36:33;98287.13;;;18.86;48.12
53900;BME280;40509;32.858;-116.858;2023-02-20T06:39:01;98288.06;;;18.85;48.30
53900;BME280;40509;32.858;-116.858;2023-02-20T06:41:28;98280.22;;;18.85;47.96
53900;BME280;40509;32.858;-116.858;2023-02-20T06:43:56;98287.78;;;18.79;47.97
53900;BME280;40509;32.858;-116.858;2023-02-20T06:46:23;98296.44;;;18.79;48.04
53900;BME280;40509;32.858;-116.858;2023-02-20T06:48:53;98298.25;;;18.79;48.14
53900;BME280;40509;32.858;-116.858;2023-02-20T06:51:24;98303.56;;;18.77;48.30
53900;BME280;40509;32.858;-116.858;2023-02-20T06:53:51;98290.63;;;18.76;48.16
53900;BME280;40509;32.858;-116.858;2023-02-20T06:56:22;98297.19;;;18.70;48.29
53900;BME280;40509;32.858;-116.858;2023-02-20T06:58:51;98293.16;;;18.66;48.48
53900;BME280;40509;32.858;-116.858;2023-02-20T07:01:20;98291.47;;;18.65;48.24
53900;BME280;40509;32.858;-116.858;2023-02-20T07:03:49;98293.53;;;18.61;48.60
53900;BME280;40509;32.858;-116.858;2023-02-20T07:06:16;98294.59;;;18.59;48.61
53900;BME280;40509;32.858;-116.858;2023-02-20T07:08:43;98291.88;;;18.60;48.45
53900;BME280;40509;32.858;-116.858;2023-02-20T07:11:11;98290.06;;;18.61;48.18
53900;BME280;40509;32.858;-116.858;2023-02-20T07:13:39;98292.81;;;18.59;48.15
53900;BME280;40509;32.858;-116.858;2023-02-20T07:16:07;98291.00;;;18.60;48.06
53900;BME280;40509;32.858;-116.858;2023-02-20T07:18:34;98290.31;;;18.58;47.89
53900;BME280;40509;32.858;-116.858;2023-02-20T07:21:01;98291.41;;;18.55;48.21
53900;BME280;40509;32.858;-116.858;2023-02-20T07:23:29;98293.31;;;18.53;48.13
53900;BME280;40509;32.858;-116.858;2023-02-20T07:25:56;98286.44;;;18.52;48.41
53900;BME280;40509;32.858;-116.858;2023-02-20T07:28:23;98286.56;;;18.50;48.00
53900;BME280;40509;32.858;-116.858;2023-02-20T07:30:50;98290.25;;;18.48;47.96
53900;BME280;40509;32.858;-116.858;2023-02-20T07:33:18;98286.78;;;18.47;48.11
53900;BME280;40509;32.858;-116.858;2023-02-20T07:35:45;98282.53;;;18.46;47.80
53900;BME280;40509;32.858;-116.858;2023-02-20T07:38:14;98291.06;;;18.48;47.74
53900;BME280;40509;32.858;-116.858;2023-02-20T07:40:41;98287.03;;;18.44;48.02
53900;BME280;40509;32.858;-116.858;2023-02-20T07:43:08;98279.69;;;18.38;48.18
53900;BME280;40509;32.858;-116.858;2023-02-20T07:45:37;98285.88;;;18.37;48.00
53900;BME280;40509;32.858;-116.858;2023-02-20T07:48:05;98286.94;;;18.34;48.11
53900;BME280;40509;32.858;-116.858;2023-02-20T07:50:33;98281.72;;;18.34;48.19
53900;BME280;40509;32.858;-116.858;2023-02-20T07:53:00;98280.63;;;18.37;47.64
53900;BME280;40509;32.858;-116.858;2023-02-20T07:55:27;98278.97;;;18.36;47.79
53900;BME280;40509;32.858;-116.858;2023-02-20T07:57:54;98279.09;;;18.34;48.07
53900;BME280;40509;32.858;-116.858;2023-02-20T08:00:25;98282.78;;;18.32;47.92
53900;BME280;40509;32.858;-116.858;2023-02-20T08:02:53;98285.25;;;18.33;47.56
53900;BME280;40509;32.858;-116.858;2023-02-20T08:05:21;98275.88;;;18.31;47.96
53900;BME280;40509;32.858;-116.858;2023-02-20T08:07:49;98279.00;;;18.25;47.78
53900;BME280;40509;32.858;-116.858;2023-02-20T08:10:19;98276.25;;;18.26;47.86
53900;BME280;40509;32.858;-116.858;2023-02-20T08:12:48;98265.94;;;18.25;47.87
53900;BME280;40509;32.858;-116.858;2023-02-20T08:15:20;98278.16;;;18.24;47.56
53900;BME280;40509;32.858;-116.858;2023-02-20T08:17:47;98270.31;;;18.24;47.82
53900;BME280;40509;32.858;-116.858;2023-02-20T08:20:17;98267.22;;;18.19;47.96
53900;BME280;40509;32.858;-116.858;2023-02-20T08:22:46;98268.66;;;18.12;47.95
53900;BME280;40509;32.858;-116.858;2023-02-20T08:25:15;98275.94;;;18.08;48.08
53900;BME280;40509;32.858;-116.858;2023-02-20T08:27:44;98276.88;;;18.07;48.01
53900;BME280;40509;32.858;-116.858;2023-02-20T08:30:16;98281.50;;;18.03;48.01
53900;BME280;40509;32.858;-116.858;2023-02-20T08:32:43;98280.81;;;18.01;48.10
53900;BME280;40509;32.858;-116.858;2023-02-20T08:35:11;98278.66;;;18.07;47.98
53900;BME280;40509;32.858;-116.858;2023-02-20T08:37:38;98282.22;;;18.06;48.14
53900;BME280;40509;32.858;-116.858;2023-02-20T08:40:06;98283.31;;;18.03;47.98
53900;BME280;40509;32.858;-116.858;2023-02-20T08:42:34;98277.81;;;18.06;47.74
53900;BME280;40509;32.858;-116.858;2023-02-20T08:45:03;98284.84;;;18.06;47.78
53900;BME280;40509;32.858;-116.858;2023-02-20T08:47:31;98281.38;;;18.05;47.54
53900;BME280;40509;32.858;-116.858;2023-02-20T08:49:59;98288.75;;;18.00;47.96
53900;BME280;40509;32.858;-116.858;2023-02-20T08:52:26;98291.47;;;17.98;47.80
53900;BME280;40509;32.858;-116.858;2023-02-20T08:54:53;98287.56;;;18.04;47.68
53900;BME280;40509;32.858;-116.858;2023-02-20T08:57:20;98282.44;;;18.02;47.39
53900;BME280;40509;32.858;-116.858;2023-02-20T08:59:48;98289.72;;;17.99;47.76
53900;BME280;40509;32.858;-116.858;2023-02-20T09:02:18;98287.31;;;17.96;48.06
53900;BME280;40509;32.858;-116.858;2023-02-20T09:04:47;98285.91;;;17.92;47.93
53900;BME280;40509;32.858;-116.858;2023-02-20T09:07:14;98279.94;;;17.90;47.74
53900;BME280;40509;32.858;-116.858;2023-02-20T09:09:42;98278.28;;;17.89;47.57
53900;BME280;40509;32.858;-116.858;2023-02-20T09:12:09;98271.78;;;17.94;47.55
53900;BME280;40509;32.858;-116.858;2023-02-20T09:14:36;98270.31;;;17.90;47.66
53900;BME280;40509;32.858;-116.858;2023-02-20T09:17:04;98267.84;;;17.89;47.65
53900;BME280;40509;32.858;-116.858;2023-02-20T09:19:31;98261.66;;;17.90;47.58
53900;BME280;40509;32.858;-116.858;2023-02-20T09:21:59;98268.31;;;17.82;47.91
53900;BME280;40509;32.858;-116.858;2023-02-20T09:24:27;98260.69;;;17.79;47.58
53900;BME280;40509;32.858;-116.858;2023-02-20T09:26:57;98261.75;;;17.77;47.53
53900;BME280;40509;32.858;-116.858;2023-02-20T09:29:24;98260.69;;;17.79;47.79
53900;BME280;40509;32.858;-116.858;2023-02-20T09:31:52;98253.25;;;17.75;47.80
53900;BME280;40509;32.858;-116.858;2023-02-20T09:34:20;98260.94;;;17.76;47.63
53900;BME280;40509;32.858;-116.858;2023-02-20T09:36:47;98264.50;;;17.75;47.43
53900;BME280;40509;32.858;-116.858;2023-02-20T09:39:15;98263.69;;;17.75;47.55
53900;BME280;40509;32.858;-116.858;2023-02-20T09:47:06;98264.03;;;17.70;47.78
53900;BME280;40509;32.858;-116.858;2023-02-20T09:49:41;98264.63;;;17.74;47.56
53900;BME280;40509;32.858;-116.858;2023-02-20T09:52:12;98263.81;;;17.73;47.42
53900;BME280;40509;32.858;-116.858;2023-02-20T09:54:48;98270.09;;;17.70;47.57
53900;BME280;40509;32.858;-116.858;2023-02-20T09:57:21;98278.03;;;17.69;47.74
53900;BME280;40509;32.858;-116.858;2023-02-20T09:59:57;98274.72;;;17.67;47.64
53900;BME280;40509;32.858;-116.858;2023-02-20T10:05:02;98269.97;;;17.72;47.18
53900;BME280;40509;32.858;-116.858;2023-02-20T10:07:37;98273.03;;;17.66;47.53
53900;BME280;40509;32.858;-116.858;2023-02-20T10:20:57;98291.69;;;17.61;47.49
53900;BME280;40509;32.858;-116.858;2023-02-20T10:23:47;98282.41;;;17.57;47.57
53900;BME280;40509;32.858;-116.858;2023-02-20T10:26:32;98279.69;;;17.59;47.31
53900;BME280;40509;32.858;-116.858;2023-02-20T10:29:23;98277.31;;;17.56;47.44
53900;BME280;40509;32.858;-116.858;2023-02-20T10:34:34;98265.56;;;17.50;47.58
53900;BME280;40509;32.858;-116.858;2023-02-20T10:37:15;98258.06;;;17.45;47.63
53900;BME280;40509;32.858;-116.858;2023-02-20T10:48:23;98254.88;;;17.42;47.62
53900;BME280;40509;32.858;-116.858;2023-02-20T10:51:09;98253.78;;;17.44;47.21
53900;BME280;40509;32.858;-116.858;2023-02-20T10:56:19;98247.63;;;17.45;47.10
53900;BME280;40509;32.858;-116.858;2023-02-20T11:01:27;98240.75;;;17.44;47.22
53900;BME280;40509;32.858;-116.858;2023-02-20T11:04:01;98245.28;;;17.42;47.28
53900;BME280;40509;32.858;-116.858;2023-02-20T11:07:11;98246.22;;;17.41;47.25
53900;BME280;40509;32.858;-116.858;2023-02-20T11:09:40;98245.50;;;17.39;47.24
53900;BME280;40509;32.858;-116.858;2023-02-20T11:15:04;98229.00;;;17.39;47.10
53900;BME280;40509;32.858;-116.858;2023-02-20T11:17:33;98224.97;;;17.34;47.30
53900;BME280;40509;32.858;-116.858;2023-02-20T11:20:01;98227.25;;;17.39;47.34
53900;BME280;40509;32.858;-116.858;2023-02-20T11:22:47;98223.44;;;17.43;47.08
53900;BME280;40509;32.858;-116.858;2023-02-20T11:25:27;98222.03;;;17.39;46.95
53900;BME280;40509;32.858;-116.858;2023-02-20T11:28:23;98220.69;;;17.33;46.98
53900;BME280;40509;32.858;-116.858;2023-02-20T11:31:02;98226.28;;;17.29;47.33
53900;BME280;40509;32.858;-116.858;2023-02-20T11:33:32;98237.75;;;17.26;47.33
53900;BME280;40509;32.858;-116.858;2023-02-20T11:36:16;98230.19;;;17.34;46.65
53900;BME280;40509;32.858;-116.858;2023-02-20T11:38:44;98228.88;;;17.29;46.82
53900;BME280;40509;32.858;-116.858;2023-02-20T11:41:21;98232.31;;;17.29;46.76
53900;BME280;40509;32.858;-116.858;2023-02-20T11:44:24;98235.16;;;17.26;46.96
53900;BME280;40509;32.858;-116.858;2023-02-20T11:49:46;98225.91;;;17.22;47.00
53900;BME280;40509;32.858;-116.858;2023-02-20T11:52:21;98237.66;;;17.28;46.92
53900;BME280;40509;32.858;-116.858;2023-02-20T11:55:19;98233.59;;;17.24;46.95
53900;BME280;40509;32.858;-116.858;2023-02-20T11:57:47;98229.25;;;17.24;46.72
53900;BME280;40509;32.858;-116.858;2023-02-20T12:00:29;98228.13;;;17.15;47.01
53900;BME280;40509;32.858;-116.858;2023-02-20T12:03:11;98222.44;;;17.10;47.19
53900;BME280;40509;32.858;-116.858;2023-02-20T12:05:41;98217.00;;;17.13;47.09
53900;BME280;40509;32.858;-116.858;2023-02-20T12:08:33;98217.94;;;17.12;47.06
53900;BME280;40509;32.858;-116.858;2023-02-20T12:11:29;98214.59;;;17.10;47.00
53900;BME280;40509;32.858;-116.858;2023-02-20T12:13:58;98217.81;;;17.14;46.75
53900;BME280;40509;32.858;-116.858;2023-02-20T12:16:52;98212.13;;;17.09;46.96
53900;BME280;40509;32.858;-116.858;2023-02-20T12:24:54;98222.22;;;17.13;46.69
53900;BME280;40509;32.858;-116.858;2023-02-20T12:27:49;98215.47;;;17.11;46.70
53900;BME280;40509;32.858;-116.858;2023-02-20T12:36:40;98220.06;;;17.07;46.77
53900;BME280;40509;32.858;-116.858;2023-02-20T12:47:40;98225.84;;;16.99;46.79
53900;BME280;40509;32.858;-116.858;2023-02-20T12:58:47;98236.88;;;17.03;46.44
53900;BME280;40509;32.858;-116.858;2023-02-20T13:01:19;98241.06;;;17.06;46.26
53900;BME280;40509;32.858;-116.858;2023-02-20T13:06:57;98242.53;;;16.97;46.45
53900;BME280;40509;32.858;-116.858;2023-02-20T13:09:32;98239.72;;;17.00;46.33
53900;BME280;40509;32.858;-116.858;2023-02-20T13:12:09;98235.34;;;17.00;46.19
53900;BME280;40509;32.858;-116.858;2023-02-20T13:14:50;98238.19;;;16.97;46.20
53900;BME280;40509;32.858;-116.858;2023-02-20T13:17:40;98234.41;;;17.01;45.97
53900;BME280;40509;32.858;-116.858;2023-02-20T13:25:37;98239.59;;;16.90;46.36
53900;BME280;40509;32.858;-116.858;2023-02-20T13:28:32;98237.34;;;16.97;46.00
53900;BME280;40509;32.858;-116.858;2023-02-20T13:34:25;98244.81;;;16.90;46.36
53900;BME280;40509;32.858;-116.858;2023-02-20T13:36:40;98239.66;;;16.89;46.27
53900;BME280;40509;32.858;-116.858;2023-02-20T13:39:36;98246.78;;;16.86;46.33
53900;BME280;40509;32.858;-116.858;2023-02-20T13:42:29;98246.78;;;16.86;46.38
53900;BME280;40509;32.858;-116.858;2023-02-20T13:44:57;98251.47;;;16.81;46.34
53900;BME280;40509;32.858;-116.858;2023-02-20T13:47:34;98250.44;;;16.84;46.26
53900;BME280;40509;32.858;-116.858;2023-02-20T13:50:28;98252.41;;;16.80;46.40
53900;BME280;40509;32.858;-116.858;2023-02-20T13:52:59;98253.03;;;16.84;46.19
53900;BME280;40509;32.858;-116.858;2023-02-20T13:55:28;98253.97;;;16.83;46.23
53900;BME280;40509;32.858;-116.858;2023-02-20T14:02:59;98259.31;;;16.81;46.06
53900;BME280;40509;32.858;-116.858;2023-02-20T14:05:31;98262.53;;;16.85;46.07
53900;BME280;40509;32.858;-116.858;2023-02-20T14:07:58;98269.28;;;16.88;45.83
53900;BME280;40509;32.858;-116.858;2023-02-20T14:10:35;98271.06;;;16.87;45.74
53900;BME280;40509;32.858;-116.858;2023-02-20T14:13:10;98279.00;;;16.85;46.01
53900;BME280;40509;32.858;-116.858;2023-02-20T14:15:51;98278.84;;;16.76;46.07
53900;BME280;40509;32.858;-116.858;2023-02-20T14:18:38;98274.44;;;16.76;46.23
53900;BME280;40509;32.858;-116.858;2023-02-20T14:21:17;98276.47;;;16.73;46.17
53900;BME280;40509;32.858;-116.858;2023-02-20T14:23:46;98277.53;;;16.70;46.34
53900;BME280;40509;32.858;-116.858;2023-02-20T14:26:23;98280.81;;;16.72;46.30
53900;BME280;40509;32.858;-116.858;2023-02-20T14:28:53;98280.94;;;16.71;46.11
53900;BME280;40509;32.858;-116.858;2023-02-20T14:31:28;98293.03;;;16.72;46.17
53900;BME280;40509;32.858;-116.858;2023-02-20T14:42:26;98315.66;;;16.71;46.17
53900;BME280;40509;32.858;-116.858;2023-02-20T14:44:59;98307.00;;;16.71;45.97
53900;BME280;40509;32.858;-116.858;2023-02-20T14:47:27;98307.94;;;16.69;46.18
53900;BME280;40509;32.858;-116.858;2023-02-20T14:50:13;98307.34;;;16.66;46.07
53900;BME280;40509;32.858;-116.858;2023-02-20T14:52:42;98310.56;;;16.69;46.10
53900;BME280;40509;32.858;-116.858;2023-02-20T14:55:15;98308.69;;;16.72;45.79
53900;BME280;40509;32.858;-116.858;2023-02-20T14:57:43;98314.22;;;16.67;45.92
53900;BME280;40509;32.858;-116.858;2023-02-20T15:00:23;98318.38;;;16.69;45.95
53900;BME280;40509;32.858;-116.858;2023-02-20T15:02:53;98319.09;;;16.72;45.87
53900;BME280;40509;32.858;-116.858;2023-02-20T15:05:32;98319.66;;;16.64;45.98
53900;BME280;40509;32.858;-116.858;2023-02-20T15:08:11;98320.38;;;16.66;45.96
53900;BME280;40509;32.858;-116.858;2023-02-20T15:10:42;98322.75;;;16.69;45.88